Time;durP1;ratioP1;P1;durP2;ratioP2;P2;SDS_P1;SDS_P2;PMS_P1;PMS_P2;Temp;Humidity;BMP_temperature;BMP_pressure;BME280_temperature;BME280_humidity;BME280_pressure;Samples;Min_cycle;Max_cycle;Signal;HPM_P1;HPM_P2
2020/12/19 00:02:06;;;;;;;10.73;7.37;;;;;7.20;100933.00;;;;10339976;28;20590;-80
2020/12/19 00:07:17;;;;;;;11.50;7.37;;;;;7.20;100930.00;;;;10335164;28;20183;-79
2020/12/19 00:12:22;;;;;;;11.53;7.60;;;;;7.20;100919.00;;;;10369951;28;20551;-79
2020/12/19 00:17:23;;;;;;;13.47;9.23;;;;;7.20;100901.00;;;;10356321;28;20200;-78
2020/12/19 00:22:25;;;;;;;13.10;8.30;;;;;7.20;100914.00;;;;10348818;28;20269;-79
2020/12/19 00:27:26;;;;;;;13.60;9.07;;;;;7.20;100912.00;;;;10333401;28;20586;-79
2020/12/19 00:32:28;;;;;;;12.20;9.33;;;;;7.10;100897.00;;;;10325078;28;20295;-78
2020/12/19 00:37:29;;;;;;;11.47;8.40;;;;;7.10;100886.00;;;;10338294;28;20273;-78
2020/12/19 00:42:31;;;;;;;10.97;8.27;;;;;7.10;100883.00;;;;10333667;28;20219;-79
2020/12/19 00:47:37;;;;;;;10.67;8.30;;;;;7.10;100885.00;;;;10356245;28;20301;-79
2020/12/19 00:52:38;;;;;;;10.27;7.67;;;;;7.10;100873.00;;;;10332112;28;20246;-79
2020/12/19 00:57:40;;;;;;;12.03;7.53;;;;;7.00;100872.00;;;;10370195;28;20219;-78
2020/12/19 01:02:41;;;;;;;10.33;7.50;;;;;7.10;100862.00;;;;10328428;28;20269;-79
2020/12/19 01:07:48;;;;;;;10.33;7.83;;;;;7.00;100845.00;;;;10335115;28;20189;-78
2020/12/19 01:12:49;;;;;;;10.03;7.43;;;;;7.00;100848.00;;;;10340681;28;20279;-79
2020/12/19 01:17:50;;;;;;;12.33;8.77;;;;;7.00;100860.00;;;;10358735;28;20231;-79
2020/12/19 01:22:52;;;;;;;12.73;7.27;;;;;7.00;100852.00;;;;10325793;28;20203;-79
2020/12/19 01:27:54;;;;;;;11.53;8.20;;;;;7.00;100849.00;;;;10353171;28;20218;-79
2020/12/19 01:32:55;;;;;;;12.63;8.97;;;;;7.00;100853.00;;;;10337408;28;20192;-79
2020/12/19 01:38:10;;;;;;;13.40;9.43;;;;;7.00;100846.00;;;;10329582;28;20208;-80
2020/12/19 01:43:11;;;;;;;11.83;8.57;;;;;7.10;100839.00;;;;10347977;28;20583;-79
2020/12/19 01:48:19;;;;;;;13.20;7.90;;;;;7.20;100837.00;;;;10347303;28;20187;-79
2020/12/19 01:53:22;;;;;;;13.57;8.53;;;;;7.20;100844.00;;;;10347640;28;20195;-79
2020/12/19 01:58:23;;;;;;;11.90;7.97;;;;;7.20;100829.00;;;;10363263;28;20258;-79
2020/12/19 02:03:25;;;;;;;10.90;7.97;;;;;7.20;100832.00;;;;10362431;28;20849;-78
2020/12/19 02:08:27;;;;;;;10.63;8.20;;;;;7.30;100823.00;;;;10325763;28;20666;-78
2020/12/19 02:13:28;;;;;;;13.90;7.83;;;;;7.20;100829.00;;;;10371487;28;20215;-78
2020/12/19 02:18:30;;;;;;;13.40;8.20;;;;;7.30;100824.00;;;;10306430;28;20274;-79
2020/12/19 02:23:31;;;;;;;10.17;7.93;;;;;7.30;100823.00;;;;10337673;28;20258;-78
2020/12/19 02:28:33;;;;;;;12.20;7.20;;;;;7.30;100805.00;;;;10321171;28;20202;-79
2020/12/19 02:33:34;;;;;;;10.37;6.63;;;;;7.30;100807.00;;;;10358271;28;20191;-80
2020/12/19 02:38:42;;;;;;;11.53;8.53;;;;;7.30;100810.00;;;;10345079;28;20235;-79
2020/12/19 02:43:55;;;;;;;9.97;7.30;;;;;7.20;100797.00;;;;10344792;28;20215;-79
2020/12/19 02:48:57;;;;;;;10.20;7.43;;;;;7.20;100786.00;;;;10361209;28;20202;-80
2020/12/19 02:53:58;;;;;;;9.37;7.43;;;;;7.10;100781.00;;;;10360460;28;20558;-80
2020/12/19 02:58:59;;;;;;;10.90;6.33;;;;;7.10;100774.00;;;;10376697;28;20207;-79
2020/12/19 03:04:01;;;;;;;8.80;6.40;;;;;7.10;100759.00;;;;10360059;28;20195;-80
2020/12/19 03:09:06;;;;;;;9.87;6.67;;;;;7.20;100768.00;;;;10358434;28;20215;-79
2020/12/19 03:14:08;;;;;;;10.63;6.80;;;;;7.20;100770.00;;;;10344565;28;20192;-78
2020/12/19 03:19:09;;;;;;;11.33;6.80;;;;;7.30;100760.00;;;;10341083;28;20302;-78
2020/12/19 03:24:10;;;;;;;7.73;6.73;;;;;7.30;100756.00;;;;10319613;28;20196;-79
2020/12/19 03:29:12;;;;;;;7.47;6.43;;;;;7.30;100758.00;;;;10319758;28;20207;-79
2020/12/19 03:34:13;;;;;;;10.87;7.37;;;;;7.30;100763.00;;;;10304157;28;20196;-79
2020/12/19 03:39:17;;;;;;;10.37;6.43;;;;;7.30;100764.00;;;;10354894;28;20579;-79
2020/12/19 03:44:18;;;;;;;8.83;7.10;;;;;7.30;100754.00;;;;10341998;28;20612;-79
2020/12/19 03:49:19;;;;;;;11.13;7.53;;;;;7.30;100745.00;;;;10353091;28;20187;-80
2020/12/19 03:54:21;;;;;;;12.10;7.63;;;;;7.30;100747.00;;;;10376232;28;20200;-80
2020/12/19 03:59:22;;;;;;;11.07;7.37;;;;;7.30;100750.00;;;;10343271;28;20209;-80
2020/12/19 04:04:24;;;;;;;11.07;6.77;;;;;7.30;100740.00;;;;10362559;28;20202;-80
2020/12/19 04:09:34;;;;;;;13.13;8.20;;;;;7.20;100733.00;;;;10342655;28;20188;-80
2020/12/19 04:14:37;;;;;;;12.13;7.77;;;;;7.20;100726.00;;;;10358596;28;20195;-80
2020/12/19 04:19:40;;;;;;;13.80;8.87;;;;;7.20;100717.00;;;;10350888;28;20228;-79
2020/12/19 04:24:42;;;;;;;13.43;10.10;;;;;7.20;100700.00;;;;10366024;28;20195;-79
2020/12/19 04:29:43;;;;;;;16.83;10.37;;;;;7.30;100706.00;;;;10367743;28;20616;-79
2020/12/19 04:34:45;;;;;;;17.00;11.10;;;;;7.40;100715.00;;;;10355624;28;20230;-80
2020/12/19 04:39:55;;;;;;;13.40;9.30;;;;;7.40;100706.00;;;;10340961;28;20215;-79
2020/12/19 04:44:57;;;;;;;14.07;9.57;;;;;7.40;100692.00;;;;10369722;28;20222;-80
2020/12/19 04:49:59;;;;;;;18.83;11.13;;;;;7.40;100692.00;;;;10349406;28;20204;-80
2020/12/19 04:55:02;;;;;;;15.63;9.97;;;;;7.40;100680.00;;;;10349486;28;20227;-80
2020/12/19 05:00:05;;;;;;;15.57;11.33;;;;;7.40;100688.00;;;;10365831;28;20188;-80
2020/12/19 05:05:06;;;;;;;20.10;11.97;;;;;7.40;100674.00;;;;10363315;28;20251;-80
2020/12/19 05:10:15;;;;;;;17.10;12.57;;;;;7.50;100675.00;;;;10341441;28;20690;-79
2020/12/19 05:15:17;;;;;;;17.27;11.30;;;;;7.50;100674.00;;;;10345797;28;20278;-80
2020/12/19 05:20:22;;;;;;;22.30;11.27;;;;;7.50;100667.00;;;;10363779;28;20199;-80
2020/12/19 05:25:26;;;;;;;20.23;13.87;;;;;7.60;100676.00;;;;10332476;28;20192;-79
2020/12/19 05:30:29;;;;;;;20.83;13.13;;;;;7.60;100660.00;;;;10363994;28;20187;-79
2020/12/19 05:35:30;;;;;;;17.87;12.43;;;;;7.60;100650.00;;;;10348296;28;20203;-79
2020/12/19 05:40:33;;;;;;;20.83;12.77;;;;;7.70;100655.00;;;;10324731;28;20204;-79
2020/12/19 05:45:35;;;;;;;18.00;11.27;;;;;7.70;100641.00;;;;10345488;28;20210;-80
2020/12/19 05:50:36;;;;;;;17.40;11.10;;;;;7.80;100653.00;;;;10403960;28;20281;-80
2020/12/19 05:55:38;;;;;;;16.67;11.57;;;;;7.90;100652.00;;;;10371347;28;20270;-80
2020/12/19 06:00:40;;;;;;;20.67;13.33;;;;;8.00;100646.00;;;;10398727;28;20195;-79
2020/12/19 06:05:42;;;;;;;18.67;11.97;;;;;8.10;100646.00;;;;10360954;28;20647;-78
2020/12/19 06:10:52;;;;;;;16.97;11.10;;;;;8.00;100647.00;;;;10322640;28;20189;-79
2020/12/19 06:16:06;;;;;;;19.97;12.47;;;;;8.00;100651.00;;;;10325266;28;20571;-79
2020/12/19 06:21:08;;;;;;;20.03;12.33;;;;;8.00;100654.00;;;;10306691;28;20192;-79
2020/12/19 06:26:11;;;;;;;18.13;11.43;;;;;7.90;100646.00;;;;10304851;28;20189;-79
2020/12/19 06:31:18;;;;;;;17.47;11.07;;;;;8.00;100647.00;;;;10304770;28;20243;-79
2020/12/19 06:36:31;;;;;;;16.53;9.67;;;;;8.10;100645.00;;;;10316085;28;20214;-78
2020/12/19 06:41:56;;;;;;;16.67;10.37;;;;;8.10;100647.00;;;;10346369;28;20207;-80
2020/12/19 06:47:00;;;;;;;12.90;9.20;;;;;8.20;100641.00;;;;10361152;28;20549;-79
2020/12/19 06:52:13;;;;;;;15.47;10.83;;;;;8.20;100643.00;;;;10344851;28;20199;-79
2020/12/19 06:57:28;;;;;;;16.67;9.90;;;;;8.20;100642.00;;;;10312654;28;20211;-79
2020/12/19 07:02:29;;;;;;;15.70;10.37;;;;;8.10;100641.00;;;;10362050;28;20198;-80
2020/12/19 07:07:31;;;;;;;13.77;9.37;;;;;8.20;100640.00;;;;10339882;28;20202;-80
2020/12/19 07:12:37;;;;;;;13.37;7.50;;;;;8.20;100633.00;;;;10346088;28;20202;-79
2020/12/19 07:17:49;;;;;;;13.90;9.37;;;;;8.20;100627.00;;;;10377551;28;20239;-80
2020/12/19 07:22:51;;;;;;;12.67;8.63;;;;;8.20;100624.00;;;;10352550;28;20196;-80
2020/12/19 07:27:55;;;;;;;14.17;9.37;;;;;8.20;100616.00;;;;10352127;28;20706;-80
2020/12/19 07:32:57;;;;;;;13.20;9.20;;;;;8.20;100625.00;;;;10378209;28;20655;-79
2020/12/19 07:37:58;;;;;;;12.13;8.60;;;;;8.20;100614.00;;;;10364058;28;20686;-80
2020/12/19 07:43:06;;;;;;;13.63;9.67;;;;;8.20;100622.00;;;;10366039;28;20227;-80
2020/12/19 07:48:08;;;;;;;14.33;8.77;;;;;8.20;100620.00;;;;10311935;28;20234;-79
2020/12/19 07:53:09;;;;;;;11.77;7.40;;;;;8.30;100629.00;;;;10328047;28;20223;-79
2020/12/19 07:58:11;;;;;;;10.30;7.37;;;;;8.50;100630.00;;;;10340372;28;20274;-78
2020/12/19 08:03:12;;;;;;;11.30;6.93;;;;;8.70;100629.00;;;;10368257;28;20207;-79
2020/12/19 08:08:14;;;;;;;9.27;6.27;;;;;8.80;100636.00;;;;10329058;28;20215;-79
2020/12/19 08:13:16;;;;;;;11.83;6.30;;;;;9.00;100624.00;;;;10326446;28;20211;-79
2020/12/19 08:18:18;;;;;;;9.93;5.77;;;;;9.30;100620.00;;;;10327635;28;20212;-79
2020/12/19 08:23:20;;;;;;;8.47;5.63;;;;;9.50;100611.00;;;;10347933;28;20200;-79
2020/12/19 08:28:22;;;;;;;6.77;5.10;;;;;9.70;100602.00;;;;10344361;28;20212;-79
2020/12/19 08:33:28;;;;;;;8.40;5.90;;;;;9.90;100610.00;;;;10342779;28;20188;-80
2020/12/19 08:38:31;;;;;;;7.30;4.87;;;;;10.10;100616.00;;;;10350952;28;20219;-80
2020/12/19 08:43:35;;;;;;;5.83;4.90;;;;;10.40;100614.00;;;;10358241;28;20715;-80
2020/12/19 08:48:37;;;;;;;7.23;5.50;;;;;10.50;100607.00;;;;10325377;28;20201;-79
2020/12/19 08:53:38;;;;;;;5.97;4.10;;;;;10.50;100615.00;;;;10326518;28;20268;-79
2020/12/19 08:58:41;;;;;;;7.63;3.97;;;;;10.50;100621.00;;;;10365259;28;20564;-79
2020/12/19 09:03:44;;;;;;;5.03;3.70;;;;;10.50;100612.00;;;;10357182;28;20195;-78
2020/12/19 09:08:48;;;;;;;7.27;4.27;;;;;10.50;100607.00;;;;10365442;28;20195;-79
2020/12/19 09:14:02;;;;;;;5.80;3.60;;;;;10.60;100611.00;;;;10343915;28;20195;-80
2020/12/19 09:19:14;;;;;;;6.07;3.30;;;;;10.70;100618.00;;;;10363697;28;20289;-80
2020/12/19 09:24:15;;;;;;;3.30;2.80;;;;;10.80;100623.00;;;;10370393;28;20198;-79
2020/12/19 09:29:18;;;;;;;7.03;3.87;;;;;11.00;100607.00;;;;10318269;28;20207;-78
2020/12/19 09:34:19;;;;;;;4.53;3.33;;;;;11.30;100605.00;;;;10355326;28;20275;-79
2020/12/19 09:39:21;;;;;;;4.13;3.00;;;;;11.60;100614.00;;;;10360844;28;20212;-78
2020/12/19 09:44:22;;;;;;;5.50;2.43;;;;;11.80;100614.00;;;;10345129;28;20238;-78
2020/12/19 09:49:23;;;;;;;4.17;3.10;;;;;11.80;100612.00;;;;10367895;28;20208;-78
2020/12/19 09:54:25;;;;;;;4.57;2.67;;;;;11.90;100606.00;;;;10290485;28;20302;-79
2020/12/19 09:59:27;;;;;;;3.93;2.70;;;;;11.90;100621.00;;;;10304967;28;20227;-78
2020/12/19 10:04:28;;;;;;;4.70;3.10;;;;;12.00;100611.00;;;;10255869;28;21266;-78
2020/12/19 10:09:29;;;;;;;4.60;2.80;;;;;12.20;100622.00;;;;10348928;28;20223;-78
2020/12/19 10:14:31;;;;;;;4.30;2.60;;;;;12.30;100615.00;;;;10370400;28;20188;-79
2020/12/19 10:19:32;;;;;;;3.43;2.40;;;;;12.40;100630.00;;;;10293532;28;20228;-78
2020/12/19 10:24:33;;;;;;;3.43;2.17;;;;;12.50;100617.00;;;;10303036;28;20238;-78
2020/12/19 10:29:35;;;;;;;2.83;2.17;;;;;12.70;100619.00;;;;10357972;28;20542;-78
2020/12/19 10:34:37;;;;;;;3.57;2.47;;;;;13.00;100624.00;;;;10365105;28;20187;-79
2020/12/19 10:39:41;;;;;;;3.40;2.27;;;;;13.20;100605.00;;;;10340057;28;20223;-78
2020/12/19 10:44:42;;;;;;;4.97;2.37;;;;;13.20;100615.00;;;;10359476;28;20305;-78
2020/12/19 10:49:44;;;;;;;3.67;2.50;;;;;13.10;100618.00;;;;10350961;28;20769;-78
2020/12/19 10:54:46;;;;;;;2.30;2.10;;;;;13.10;100613.00;;;;10351553;28;20255;-78
2020/12/19 10:59:48;;;;;;;5.37;2.60;;;;;13.10;100621.00;;;;10365545;28;20219;-77
2020/12/19 11:04:49;;;;;;;5.53;2.33;;;;;13.00;100622.00;;;;10379659;28;20191;-78
2020/12/19 11:09:50;;;;;;;3.93;2.33;;;;;13.00;100625.00;;;;10347838;28;20207;-78
2020/12/19 11:14:52;;;;;;;5.03;2.27;;;;;12.70;100596.00;;;;10365218;28;20245;-80
2020/12/19 11:19:53;;;;;;;5.80;1.80;;;;;12.40;100641.00;;;;10351981;28;20204;-79
2020/12/19 11:24:54;;;;;;;2.27;2.00;;;;;11.90;100624.00;;;;10354149;28;20210;-80
2020/12/19 11:29:56;;;;;;;2.10;1.80;;;;;11.50;100644.00;;;;10363734;28;20607;-78
2020/12/19 11:34:57;;;;;;;2.87;2.00;;;;;11.30;100653.00;;;;10369034;28;20687;-80
2020/12/19 11:39:59;;;;;;;2.40;1.90;;;;;10.90;100650.00;;;;10370452;28;20287;-79
2020/12/19 11:45:02;;;;;;;5.07;2.37;;;;;10.80;100655.00;;;;10352925;28;20270;-79
2020/12/19 11:50:04;;;;;;;2.50;2.00;;;;;10.70;100656.00;;;;10398111;28;20195;-79
2020/12/19 11:55:05;;;;;;;5.73;2.40;;;;;10.60;100659.00;;;;10350282;28;20195;-78
2020/12/19 12:00:07;;;;;;;2.83;2.30;;;;;10.60;100666.00;;;;10366866;28;20246;-78
2020/12/19 12:05:08;;;;;;;4.13;2.37;;;;;10.80;100652.00;;;;10370073;28;20356;-79
2020/12/19 12:10:10;;;;;;;3.50;2.10;;;;;11.10;100658.00;;;;10361036;28;20187;-78
2020/12/19 12:15:11;;;;;;;4.10;2.23;;;;;11.00;100648.00;;;;10363067;28;20196;-78
2020/12/19 12:20:16;;;;;;;3.57;2.70;;;;;11.00;100665.00;;;;10387675;28;20207;-79
2020/12/19 12:25:17;;;;;;;3.17;2.83;;;;;11.10;100646.00;;;;10332591;28;20200;-78
2020/12/19 12:30:19;;;;;;;3.40;3.10;;;;;11.10;100652.00;;;;10359049;28;20196;-78
2020/12/19 12:35:21;;;;;;;7.67;3.10;;;;;11.00;100659.00;;;;10339667;28;20208;-78
2020/12/19 12:40:22;;;;;;;5.80;3.00;;;;;11.00;100663.00;;;;10352547;28;20223;-78
2020/12/19 12:45:23;;;;;;;7.43;3.90;;;;;11.10;100655.00;;;;10347790;28;20223;-78
2020/12/19 12:50:25;;;;;;;6.23;3.50;;;;;11.40;100660.00;;;;10332312;28;20203;-77
2020/12/19 12:55:28;;;;;;;4.30;2.60;;;;;11.50;100665.00;;;;10335544;28;20208;-77
2020/12/19 13:00:29;;;;;;;3.47;2.43;;;;;11.90;100657.00;;;;10369676;28;20235;-78
2020/12/19 13:05:31;;;;;;;4.40;2.67;;;;;12.00;100664.00;;;;10351192;28;20208;-78
2020/12/19 13:10:32;;;;;;;2.77;2.30;;;;;11.80;100671.00;;;;10338659;28;20594;-78
2020/12/19 13:15:37;;;;;;;6.70;2.70;;;;;12.00;100671.00;;;;10333523;28;20246;-78
2020/12/19 13:20:39;;;;;;;4.97;2.60;;;;;11.70;100684.00;;;;10347323;28;20537;-78
2020/12/19 13:25:41;;;;;;;3.73;2.50;;;;;11.40;100661.00;;;;10378186;28;20651;-78
2020/12/19 13:30:42;;;;;;;5.23;2.13;;;;;11.40;100667.00;;;;10351158;28;20203;-78
2020/12/19 13:35:44;;;;;;;2.97;2.20;;;;;11.50;100670.00;;;;10363075;28;20223;-78
2020/12/19 13:40:49;;;;;;;2.67;2.20;;;;;11.50;100660.00;;;;10352472;28;20199;-78
2020/12/19 13:45:50;;;;;;;4.37;2.10;;;;;11.50;100676.00;;;;10364371;28;20211;-78
2020/12/19 13:50:52;;;;;;;4.00;2.00;;;;;11.40;100695.00;;;;10345512;28;20196;-78
2020/12/19 13:55:53;;;;;;;5.97;2.70;;;;;11.10;100690.00;;;;10348528;28;20265;-78
2020/12/19 14:00:54;;;;;;;5.00;2.13;;;;;11.20;100675.00;;;;10365612;28;20191;-78
2020/12/19 14:05:56;;;;;;;2.80;2.40;;;;;11.20;100681.00;;;;10381494;28;20184;-78
2020/12/19 14:10:57;;;;;;;3.40;2.00;;;;;11.30;100670.00;;;;10359093;28;20231;-78
2020/12/19 14:16:00;;;;;;;3.13;2.40;;;;;11.30;100682.00;;;;10346058;28;20210;-77
2020/12/19 14:21:04;;;;;;;3.00;2.70;;;;;11.50;100688.00;;;;10338972;28;20552;-78
2020/12/19 14:26:06;;;;;;;2.93;2.63;;;;;11.70;100706.00;;;;10357099;28;20203;-78
2020/12/19 14:31:08;;;;;;;4.17;2.37;;;;;11.70;100730.00;;;;10321418;28;20715;-77
2020/12/19 14:36:33;;;;;;;2.33;2.13;;;;;11.50;100724.00;;;;10356901;28;20207;-78
2020/12/19 14:41:35;;;;;;;4.33;2.50;;;;;11.60;100722.00;;;;10346756;28;20199;-78
2020/12/19 14:46:36;;;;;;;3.40;2.20;;;;;11.60;100734.00;;;;10374600;28;20221;-78
2020/12/19 14:51:38;;;;;;;5.10;1.90;;;;;11.50;100739.00;;;;10386702;28;20199;-78
2020/12/19 14:56:39;;;;;;;3.43;2.17;;;;;11.30;100745.00;;;;10355734;28;20212;-79
2020/12/19 15:01:41;;;;;;;3.67;2.37;;;;;11.10;100748.00;;;;10360223;28;20725;-78
2020/12/19 15:06:42;;;;;;;4.23;2.90;;;;;11.00;100764.00;;;;10358830;28;20200;-78
2020/12/19 15:11:47;;;;;;;6.93;2.77;;;;;10.90;100765.00;;;;10352552;28;20195;-77
2020/12/19 15:16:49;;;;;;;4.43;2.90;;;;;10.90;100773.00;;;;10342901;28;20215;-78
2020/12/19 15:21:50;;;;;;;5.50;3.27;;;;;10.80;100774.00;;;;10356372;28;20198;-78
2020/12/19 15:26:56;;;;;;;5.07;3.57;;;;;10.80;100781.00;;;;10318773;28;20187;-77
2020/12/19 15:32:01;;;;;;;4.67;3.00;;;;;10.70;100786.00;;;;10360151;28;20227;-78
2020/12/19 15:37:03;;;;;;;4.33;2.87;;;;;10.60;100787.00;;;;10349553;28;20223;-77
2020/12/19 15:42:04;;;;;;;6.07;3.20;;;;;10.50;100808.00;;;;10374859;28;20594;-78
2020/12/19 15:47:08;;;;;;;3.07;2.40;;;;;10.40;100812.00;;;;10321653;28;20196;-77
2020/12/19 15:52:09;;;;;;;3.93;3.03;;;;;10.30;100807.00;;;;10359023;28;20196;-77
2020/12/19 15:57:10;;;;;;;6.87;2.70;;;;;10.30;100816.00;;;;10355107;28;20211;-77
2020/12/19 16:02:13;;;;;;;3.83;3.10;;;;;10.40;100820.00;;;;10370295;28;20572;-78
2020/12/19 16:07:14;;;;;;;3.80;2.60;;;;;10.40;100828.00;;;;10374412;28;20680;-78
2020/12/19 16:12:16;;;;;;;5.70;3.23;;;;;10.50;100830.00;;;;10348217;28;20870;-77
2020/12/19 16:17:18;;;;;;;8.30;3.40;;;;;10.50;100826.00;;;;10367348;28;20239;-78
2020/12/19 16:22:19;;;;;;;7.23;3.77;;;;;10.60;100825.00;;;;10367634;28;20211;-78
2020/12/19 16:27:21;;;;;;;7.17;2.93;;;;;10.60;100833.00;;;;10333260;28;20250;-78
2020/12/19 16:32:22;;;;;;;5.40;2.87;;;;;10.50;100834.00;;;;10363913;28;20206;-77
2020/12/19 16:37:24;;;;;;;3.83;2.77;;;;;10.50;100828.00;;;;10368797;28;20258;-79
2020/12/19 16:42:26;;;;;;;4.60;2.63;;;;;10.30;100832.00;;;;10347721;28;20219;-75
2020/12/19 16:47:28;;;;;;;5.97;2.80;;;;;10.20;100830.00;;;;10324779;28;20204;-76
2020/12/19 16:52:29;;;;;;;6.63;2.60;;;;;10.00;100837.00;;;;10375048;28;20261;-78
2020/12/19 16:57:30;;;;;;;4.67;3.07;;;;;10.00;100827.00;;;;10349017;28;20210;-77
2020/12/19 17:02:32;;;;;;;6.33;3.03;;;;;9.90;100832.00;;;;10341847;28;20250;-78
2020/12/19 17:07:34;;;;;;;4.87;3.03;;;;;9.90;100823.00;;;;10357045;28;20198;-78
2020/12/19 17:12:36;;;;;;;6.20;3.17;;;;;9.90;100828.00;;;;10371604;28;20500;-79
2020/12/19 17:17:37;;;;;;;6.13;3.10;;;;;9.90;100821.00;;;;10353875;28;20747;-78
2020/12/19 17:22:39;;;;;;;4.67;3.13;;;;;9.90;100832.00;;;;10403185;28;20191;-78
2020/12/19 17:27:42;;;;;;;8.63;3.27;;;;;9.90;100814.00;;;;10387288;28;20210;-78
2020/12/19 17:32:43;;;;;;;6.17;2.77;;;;;9.90;100830.00;;;;10387529;28;20199;-78
2020/12/19 17:37:46;;;;;;;6.07;3.13;;;;;9.80;100833.00;;;;10389050;28;20728;-77
2020/12/19 17:42:47;;;;;;;7.47;3.40;;;;;9.80;100826.00;;;;10384857;28;20246;-78
2020/12/19 17:47:49;;;;;;;7.17;3.40;;;;;9.80;100830.00;;;;10357320;28;20290;-78
2020/12/19 17:52:50;;;;;;;7.80;3.97;;;;;9.80;100853.00;;;;10339907;28;20199;-77
2020/12/19 17:57:52;;;;;;;8.43;4.20;;;;;9.70;100864.00;;;;10339340;28;20247;-78
2020/12/19 18:02:53;;;;;;;7.33;3.93;;;;;9.60;100868.00;;;;10362433;28;20218;-78
2020/12/19 18:07:55;;;;;;;8.43;4.20;;;;;9.50;100882.00;;;;10347627;28;20210;-78
2020/12/19 18:12:57;;;;;;;7.27;3.70;;;;;9.50;100891.00;;;;10364720;28;20667;-77
2020/12/19 18:17:58;;;;;;;5.63;3.43;;;;;9.50;100891.00;;;;10363808;28;20218;-78
2020/12/19 18:22:59;;;;;;;9.33;3.50;;;;;9.50;100899.00;;;;10379682;28;20282;-78
2020/12/19 18:28:01;;;;;;;9.53;4.03;;;;;9.40;100892.00;;;;10363990;28;20630;-77
2020/12/19 18:33:04;;;;;;;10.77;3.97;;;;;9.30;100896.00;;;;10364076;28;20201;-79
2020/12/19 18:38:05;;;;;;;6.07;3.37;;;;;9.30;100907.00;;;;10346167;28;20215;-78
2020/12/19 18:43:07;;;;;;;6.40;3.53;;;;;9.30;100893.00;;;;10357945;28;20220;-77
2020/12/19 18:48:14;;;;;;;7.10;3.77;;;;;9.30;100898.00;;;;10305576;28;20298;-78
2020/12/19 18:53:16;;;;;;;6.13;3.10;;;;;9.30;100910.00;;;;10355949;28;20186;-77
2020/12/19 18:58:17;;;;;;;9.23;3.97;;;;;9.20;100904.00;;;;10321683;28;20624;-78
2020/12/19 19:03:19;;;;;;;5.80;3.83;;;;;9.20;100917.00;;;;10347812;28;20199;-78
2020/12/19 19:08:20;;;;;;;7.90;4.33;;;;;9.20;100922.00;;;;10361073;28;20195;-77
2020/12/19 19:13:22;;;;;;;7.33;3.80;;;;;9.20;100917.00;;;;10377697;28;20191;-77
2020/12/19 19:18:33;;;;;;;8.17;4.53;;;;;9.20;100920.00;;;;10361946;28;20551;-77
2020/12/19 19:23:34;;;;;;;8.77;4.03;;;;;9.20;100927.00;;;;10360292;28;20253;-77
2020/12/19 19:28:36;;;;;;;7.83;4.43;;;;;9.10;100929.00;;;;10344624;28;20199;-77
2020/12/19 19:33:38;;;;;;;9.30;4.40;;;;;9.10;100927.00;;;;10362665;28;20199;-77
2020/12/19 19:38:39;;;;;;;6.77;3.80;;;;;9.00;100939.00;;;;10337091;28;20636;-79
2020/12/19 19:43:42;;;;;;;9.13;4.70;;;;;9.00;100934.00;;;;10369300;28;20226;-77
2020/12/19 19:48:50;;;;;;;11.50;4.30;;;;;8.90;100932.00;;;;10352964;28;20195;-77
2020/12/19 19:53:53;;;;;;;11.27;4.53;;;;;8.90;100931.00;;;;10370048;28;20211;-77
2020/12/19 19:58:54;;;;;;;10.47;4.20;;;;;8.90;100940.00;;;;10382941;28;20231;-77
2020/12/19 20:03:55;;;;;;;8.80;4.90;;;;;8.90;100933.00;;;;10342186;28;20238;-77
2020/12/19 20:08:57;;;;;;;10.37;4.13;;;;;8.90;100946.00;;;;10325717;28;20276;-77
2020/12/19 20:14:00;;;;;;;8.27;4.63;;;;;8.90;100939.00;;;;10337861;28;20566;-77
2020/12/19 20:19:10;;;;;;;8.23;4.50;;;;;9.00;100956.00;;;;10350831;28;20215;-77
2020/12/19 20:24:12;;;;;;;8.50;4.37;;;;;8.90;100951.00;;;;10350060;28;20295;-77
2020/12/19 20:29:13;;;;;;;5.73;3.90;;;;;9.00;100954.00;;;;10365806;28;20222;-76
2020/12/19 20:34:15;;;;;;;9.23;4.03;;;;;9.00;100960.00;;;;10366883;28;20275;-76
2020/12/19 20:39:17;;;;;;;11.70;4.27;;;;;9.00;100960.00;;;;10365513;28;20278;-78
2020/12/19 20:44:18;;;;;;;6.73;4.50;;;;;8.90;100948.00;;;;10348226;28;20234;-78
2020/12/19 20:49:28;;;;;;;8.83;4.03;;;;;9.00;100954.00;;;;10366066;28;20816;-76
2020/12/19 20:54:29;;;;;;;6.00;4.27;;;;;9.00;100963.00;;;;10365543;28;20686;-77
2020/12/19 20:59:30;;;;;;;6.40;3.57;;;;;9.00;100964.00;;;;10381110;28;20309;-78
2020/12/19 21:04:32;;;;;;;8.00;4.10;;;;;9.00;100957.00;;;;10364158;28;20741;-77
2020/12/19 21:09:33;;;;;;;11.07;3.53;;;;;9.00;100958.00;;;;10364346;28;20619;-77
2020/12/19 21:14:35;;;;;;;8.57;4.00;;;;;8.90;100955.00;;;;10346856;28;20204;-77
2020/12/19 21:19:47;;;;;;;8.20;3.57;;;;;9.00;100957.00;;;;10369651;28;20216;-78
2020/12/19 21:24:48;;;;;;;9.60;3.73;;;;;9.00;100960.00;;;;10372061;28;20199;-77
2020/12/19 21:29:50;;;;;;;6.47;3.40;;;;;9.00;100961.00;;;;10339907;28;20204;-77
2020/12/19 21:34:52;;;;;;;5.87;3.33;;;;;9.10;100960.00;;;;10340466;28;20299;-77
2020/12/19 21:39:53;;;;;;;4.60;3.43;;;;;9.10;100959.00;;;;10346473;28;20255;-77
2020/12/19 21:44:54;;;;;;;7.30;3.13;;;;;9.10;100959.00;;;;10362639;28;20885;-77
2020/12/19 21:50:06;;;;;;;4.70;3.30;;;;;9.10;100957.00;;;;10361972;28;20203;-77
2020/12/19 21:55:10;;;;;;;8.03;3.20;;;;;9.20;100961.00;;;;10346215;28;20200;-77
2020/12/19 22:00:20;;;;;;;8.87;3.37;;;;;9.20;100958.00;;;;10360767;28;20306;-76
2020/12/19 22:05:22;;;;;;;8.07;3.80;;;;;9.20;100967.00;;;;10337957;28;20726;-78
2020/12/19 22:10:24;;;;;;;8.53;3.77;;;;;9.10;100967.00;;;;10337486;28;20262;-77
2020/12/19 22:15:26;;;;;;;6.07;3.27;;;;;9.10;100973.00;;;;10321346;28;20197;-76
2020/12/19 22:20:28;;;;;;;6.77;3.40;;;;;9.20;100962.00;;;;10322078;28;20220;-77
2020/12/19 22:25:40;;;;;;;5.83;3.03;;;;;9.20;100969.00;;;;10323440;28;20291;-77
2020/12/19 22:30:43;;;;;;;11.77;3.33;;;;;9.20;100955.00;;;;10320786;28;20196;-78
2020/12/19 22:35:44;;;;;;;6.73;3.37;;;;;9.20;100968.00;;;;10337342;28;20200;-77
2020/12/19 22:40:46;;;;;;;10.83;3.40;;;;;9.20;100972.00;;;;10338836;28;20649;-77
2020/12/19 22:45:47;;;;;;;5.83;3.10;;;;;9.20;100980.00;;;;10323819;28;20219;-78
2020/12/19 22:50:49;;;;;;;10.07;3.33;;;;;9.20;100983.00;;;;10335210;28;20203;-79
2020/12/19 22:56:09;;;;;;;7.43;3.30;;;;;9.30;100988.00;;;;10347120;28;21695;-78
2020/12/19 23:01:10;;;;;;;10.00;4.10;;;;;9.30;100999.00;;;;10335626;28;20199;-78
2020/12/19 23:06:11;;;;;;;10.53;3.97;;;;;9.30;100999.00;;;;10332633;28;20738;-78
2020/12/19 23:11:14;;;;;;;7.50;3.03;;;;;9.30;100982.00;;;;10355491;28;20230;-77
2020/12/19 23:16:15;;;;;;;9.33;3.60;;;;;9.30;100982.00;;;;10362372;28;20285;-77
2020/12/19 23:21:21;;;;;;;7.13;3.10;;;;;9.30;100995.00;;;;10347569;28;20196;-77
2020/12/19 23:26:24;;;;;;;6.60;3.63;;;;;9.30;100992.00;;;;10348833;28;20207;-77
2020/12/19 23:31:25;;;;;;;8.73;3.50;;;;;9.20;100985.00;;;;10382628;28;20203;-78
2020/12/19 23:36:27;;;;;;;10.17;3.03;;;;;9.20;100995.00;;;;10349162;28;20199;-77
2020/12/19 23:41:28;;;;;;;8.80;3.00;;;;;9.10;100985.00;;;;10317585;28;20208;-77
2020/12/19 23:46:29;;;;;;;8.87;3.13;;;;;9.00;100988.00;;;;10354230;28;20231;-78
2020/12/19 23:51:31;;;;;;;6.63;3.93;;;;;8.90;100992.00;;;;10360583;28;20200;-78
2020/12/19 23:56:33;;;;;;;6.57;2.97;;;;;8.70;100989.00;;;;10377242;28;20216;-78
